ADDS TAF Data INFO
IDs: Format: Raw Decoded Include METARs

Data at: 2056 UTC 26 May 2017

KTEB 262051Z 29010G18KT 10SM OVC090 23/12 A2961 RMK AO2 SLP028 T02280122 51010

KTEB 262044Z 2621/2718 30013G21KT P6SM VCSH FEW045 BKN080
  TEMPO 2621/2622 31016G25KT
  FM262200 31009KT P6SM SCT035
  FM270300 32005KT P6SM SCT025
  FM271500 VRB04KT P6SM SCT035 BKN100


KEWR 262051Z 28013G18KT 10SM FEW045 BKN060 BKN095 BKN250 23/12 A2963 RMK AO2 SLP033 60000 T02330122 51011

KEWR 262044Z 2621/2724 30013G23KT P6SM VCSH SCT045 BKN060
  TEMPO 2621/2623 31016G25KT
  FM262300 31012KT P6SM SCT035
  FM270400 32007KT P6SM SCT025
  FM271600 VRB05KT P6SM SCT035 BKN100


KMMU 262045Z 29010G24KT 10SM SCT060 BKN095 22/13 A2965

No TAF found for KMMU

KABE 262051Z 31010G16KT 10SM SCT060 OVC070 22/13 A2969 RMK AO2 RAB18E27 SLP053 P0000 60000 T02220128 53015

KABE 261731Z 2618/2718 29013G22KT P6SM VCSH BKN040
  FM262300 30010KT P6SM BKN045
  FM270100 29007KT P6SM FEW040 SCT120
  FM270500 VRB03KT P6SM FEW250
  FM271400 30005KT P6SM VCSH SCT015 BKN070


KSWF 261945Z 28010G21KT 10SM BKN055 22/15 A2962

KSWF 261951Z 2620/2724 30014G20KT P6SM VCSH BKN045
  FM262300 30010KT P6SM BKN035
  FM270300 32006KT P6SM SCT025
  FM271500 VRB04KT P6SM BKN040 AMD NOT SKED



Page loaded:  20:56 UTC  |   01:56 PM Pacific  |   02:56 PM Mountain  |   03:56 PM Central  |   04:56 PM Eastern

 

ADVISORIES

FORECASTS

FORECASTS

OBSERVATIONS

USER TOOLS

ABOUT US